sensor_id;sensor_type;location;lat;lon;timestamp;temperature;humidity
7427;DHT22;3755;59.316;18.092;2023-11-22T00:00:17;-2.00;99.90
7427;DHT22;3755;59.316;18.092;2023-11-22T00:02:46;-2.00;99.90
7427;DHT22;3755;59.316;18.092;2023-11-22T00:05:14;-1.90;99.90
7427;DHT22;3755;59.316;18.092;2023-11-22T00:07:42;-1.90;99.90
7427;DHT22;3755;59.316;18.092;2023-11-22T00:10:10;-2.00;99.90
7427;DHT22;3755;59.316;18.092;2023-11-22T00:12:37;-2.00;99.90
7427;DHT22;3755;59.316;18.092;2023-11-22T00:15:05;-2.00;99.90
7427;DHT22;3755;59.316;18.092;2023-11-22T00:17:33;-2.00;99.90
7427;DHT22;3755;59.316;18.092;2023-11-22T00:20:00;-2.00;99.90
7427;DHT22;3755;59.316;18.092;2023-11-22T00:22:31;-2.00;99.90
7427;DHT22;3755;59.316;18.092;2023-11-22T00:24:58;-2.00;99.90
7427;DHT22;3755;59.316;18.092;2023-11-22T00:27:28;-2.00;99.90
7427;DHT22;3755;59.316;18.092;2023-11-22T00:29:56;-2.10;99.90
7427;DHT22;3755;59.316;18.092;2023-11-22T00:32:24;-2.00;99.90
7427;DHT22;3755;59.316;18.092;2023-11-22T00:34:51;-2.00;99.90
7427;DHT22;3755;59.316;18.092;2023-11-22T00:37:18;-2.00;99.90
7427;DHT22;3755;59.316;18.092;2023-11-22T00:39:45;-2.10;99.90
7427;DHT22;3755;59.316;18.092;2023-11-22T00:42:12;-1.90;99.90
7427;DHT22;3755;59.316;18.092;2023-11-22T00:44:41;-1.90;99.90
7427;DHT22;3755;59.316;18.092;2023-11-22T00:47:08;-2.10;99.90
7427;DHT22;3755;59.316;18.092;2023-11-22T00:49:35;-2.10;99.90
7427;DHT22;3755;59.316;18.092;2023-11-22T00:52:03;-2.10;99.90
7427;DHT22;3755;59.316;18.092;2023-11-22T00:54:30;-2.20;99.90
7427;DHT22;3755;59.316;18.092;2023-11-22T00:56:57;-2.30;99.90
7427;DHT22;3755;59.316;18.092;2023-11-22T00:59:24;-2.30;99.90
7427;DHT22;3755;59.316;18.092;2023-11-22T01:01:53;-2.40;99.90
7427;DHT22;3755;59.316;18.092;2023-11-22T01:04:20;-2.40;99.90
7427;DHT22;3755;59.316;18.092;2023-11-22T01:06:48;-2.30;99.90
7427;DHT22;3755;59.316;18.092;2023-11-22T01:09:15;-2.30;99.90
7427;DHT22;3755;59.316;18.092;2023-11-22T01:11:44;-2.40;99.90
7427;DHT22;3755;59.316;18.092;2023-11-22T01:14:11;-2.30;99.90
7427;DHT22;3755;59.316;18.092;2023-11-22T01:16:38;-2.30;99.90
7427;DHT22;3755;59.316;18.092;2023-11-22T01:19:07;-2.20;99.90
7427;DHT22;3755;59.316;18.092;2023-11-22T01:21:34;-2.30;99.90
7427;DHT22;3755;59.316;18.092;2023-11-22T01:24:01;-2.30;99.90
7427;DHT22;3755;59.316;18.092;2023-11-22T01:26:28;-2.30;99.90
7427;DHT22;3755;59.316;18.092;2023-11-22T01:28:56;-2.20;99.90
7427;DHT22;3755;59.316;18.092;2023-11-22T01:31:23;-2.10;99.90
7427;DHT22;3755;59.316;18.092;2023-11-22T01:33:52;-2.10;99.90
7427;DHT22;3755;59.316;18.092;2023-11-22T01:36:21;-2.10;99.90
7427;DHT22;3755;59.316;18.092;2023-11-22T01:38:48;-2.10;99.90
7427;DHT22;3755;59.316;18.092;2023-11-22T01:41:16;-2.10;99.90
7427;DHT22;3755;59.316;18.092;2023-11-22T01:43:43;-2.10;99.90
7427;DHT22;3755;59.316;18.092;2023-11-22T01:46:17;-2.00;99.90
7427;DHT22;3755;59.316;18.092;2023-11-22T01:48:47;-2.20;99.90
7427;DHT22;3755;59.316;18.092;2023-11-22T01:51:14;-2.20;99.90
7427;DHT22;3755;59.316;18.092;2023-11-22T01:53:43;-2.20;99.90
7427;DHT22;3755;59.316;18.092;2023-11-22T01:56:10;-2.20;99.90
7427;DHT22;3755;59.316;18.092;2023-11-22T01:58:37;-2.20;99.90
7427;DHT22;3755;59.316;18.092;2023-11-22T02:01:04;-2.30;99.90
7427;DHT22;3755;59.316;18.092;2023-11-22T02:03:32;-2.20;99.90
7427;DHT22;3755;59.316;18.092;2023-11-22T02:05:59;-2.30;99.90
7427;DHT22;3755;59.316;18.092;2023-11-22T02:08:26;-2.30;99.90
7427;DHT22;3755;59.316;18.092;2023-11-22T02:11:02;-2.30;99.90
7427;DHT22;3755;59.316;18.092;2023-11-22T02:13:29;-2.30;99.90
7427;DHT22;3755;59.316;18.092;2023-11-22T02:15:56;-2.30;99.90
7427;DHT22;3755;59.316;18.092;2023-11-22T02:18:25;-2.30;99.90
7427;DHT22;3755;59.316;18.092;2023-11-22T02:20:53;-2.50;99.90
7427;DHT22;3755;59.316;18.092;2023-11-22T02:23:21;-2.50;99.90
7427;DHT22;3755;59.316;18.092;2023-11-22T02:25:48;-2.50;99.90
7427;DHT22;3755;59.316;18.092;2023-11-22T02:28:15;-2.50;99.90
7427;DHT22;3755;59.316;18.092;2023-11-22T02:30:43;-2.60;99.90
7427;DHT22;3755;59.316;18.092;2023-11-22T02:33:10;-2.70;99.90
7427;DHT22;3755;59.316;18.092;2023-11-22T02:35:37;-2.70;99.90
7427;DHT22;3755;59.316;18.092;2023-11-22T02:38:06;-2.70;99.90
7427;DHT22;3755;59.316;18.092;2023-11-22T02:40:35;-2.80;99.90
7427;DHT22;3755;59.316;18.092;2023-11-22T02:43:02;-2.80;99.90
7427;DHT22;3755;59.316;18.092;2023-11-22T02:45:32;-2.70;99.90
7427;DHT22;3755;59.316;18.092;2023-11-22T02:47:59;-2.70;99.90
7427;DHT22;3755;59.316;18.092;2023-11-22T02:50:29;-2.80;99.90
7427;DHT22;3755;59.316;18.092;2023-11-22T02:52:57;-2.80;99.90
7427;DHT22;3755;59.316;18.092;2023-11-22T02:55:24;-2.70;99.90
7427;DHT22;3755;59.316;18.092;2023-11-22T02:57:53;-2.70;99.90
7427;DHT22;3755;59.316;18.092;2023-11-22T03:00:20;-2.70;99.90
7427;DHT22;3755;59.316;18.092;2023-11-22T03:02:47;-2.60;99.90
7427;DHT22;3755;59.316;18.092;2023-11-22T03:05:19;-2.60;99.90
7427;DHT22;3755;59.316;18.092;2023-11-22T03:07:47;-2.60;99.90
7427;DHT22;3755;59.316;18.092;2023-11-22T03:10:16;-2.60;99.90
7427;DHT22;3755;59.316;18.092;2023-11-22T03:12:44;-2.60;99.90
7427;DHT22;3755;59.316;18.092;2023-11-22T03:15:13;-2.60;99.90
7427;DHT22;3755;59.316;18.092;2023-11-22T03:17:40;-2.70;99.90
7427;DHT22;3755;59.316;18.092;2023-11-22T03:20:07;-2.70;99.90
7427;DHT22;3755;59.316;18.092;2023-11-22T03:22:37;-2.70;99.90
7427;DHT22;3755;59.316;18.092;2023-11-22T03:25:05;-2.70;99.90
7427;DHT22;3755;59.316;18.092;2023-11-22T03:27:32;-2.70;99.90
7427;DHT22;3755;59.316;18.092;2023-11-22T03:29:59;-2.70;99.90
7427;DHT22;3755;59.316;18.092;2023-11-22T03:32:28;-2.80;99.90
7427;DHT22;3755;59.316;18.092;2023-11-22T03:34:55;-2.80;99.90
7427;DHT22;3755;59.316;18.092;2023-11-22T03:37:22;-2.90;99.90
7427;DHT22;3755;59.316;18.092;2023-11-22T03:39:49;-3.00;99.90
7427;DHT22;3755;59.316;18.092;2023-11-22T03:42:16;-3.10;99.90
7427;DHT22;3755;59.316;18.092;2023-11-22T03:44:44;-3.10;99.90
7427;DHT22;3755;59.316;18.092;2023-11-22T03:47:11;-3.00;99.90
7427;DHT22;3755;59.316;18.092;2023-11-22T03:49:40;-3.00;99.90
7427;DHT22;3755;59.316;18.092;2023-11-22T03:52:09;-2.90;99.90
7427;DHT22;3755;59.316;18.092;2023-11-22T03:54:37;-2.90;99.90
7427;DHT22;3755;59.316;18.092;2023-11-22T03:57:05;-3.00;99.90
7427;DHT22;3755;59.316;18.092;2023-11-22T03:59:34;-3.00;99.90
7427;DHT22;3755;59.316;18.092;2023-11-22T04:02:02;-2.90;99.90
7427;DHT22;3755;59.316;18.092;2023-11-22T04:04:29;-2.90;99.90
7427;DHT22;3755;59.316;18.092;2023-11-22T04:06:58;-2.90;99.90
7427;DHT22;3755;59.316;18.092;2023-11-22T04:09:25;-2.90;99.90
7427;DHT22;3755;59.316;18.092;2023-11-22T04:11:52;-2.90;99.90
7427;DHT22;3755;59.316;18.092;2023-11-22T04:14:19;-2.90;99.90
7427;DHT22;3755;59.316;18.092;2023-11-22T04:16:47;-3.00;99.90
7427;DHT22;3755;59.316;18.092;2023-11-22T04:19:14;-3.00;99.90
7427;DHT22;3755;59.316;18.092;2023-11-22T04:21:41;-3.00;99.90
7427;DHT22;3755;59.316;18.092;2023-11-22T04:24:10;-3.00;99.90
7427;DHT22;3755;59.316;18.092;2023-11-22T04:26:38;-3.10;99.90
7427;DHT22;3755;59.316;18.092;2023-11-22T04:29:05;-3.10;99.90
7427;DHT22;3755;59.316;18.092;2023-11-22T04:31:32;-3.10;99.90
7427;DHT22;3755;59.316;18.092;2023-11-22T04:33:59;-3.20;99.90
7427;DHT22;3755;59.316;18.092;2023-11-22T04:36:26;-3.20;99.90
7427;DHT22;3755;59.316;18.092;2023-11-22T04:38:53;-3.20;99.90
7427;DHT22;3755;59.316;18.092;2023-11-22T04:41:22;-3.00;99.90
7427;DHT22;3755;59.316;18.092;2023-11-22T04:43:50;-3.20;99.90
7427;DHT22;3755;59.316;18.092;2023-11-22T04:46:17;-3.20;99.90
7427;DHT22;3755;59.316;18.092;2023-11-22T04:48:44;-3.10;99.90
7427;DHT22;3755;59.316;18.092;2023-11-22T04:51:16;-3.10;99.90
7427;DHT22;3755;59.316;18.092;2023-11-22T04:53:44;-3.20;99.90
7427;DHT22;3755;59.316;18.092;2023-11-22T04:56:11;-3.10;99.90
7427;DHT22;3755;59.316;18.092;2023-11-22T04:58:39;-3.20;99.90
7427;DHT22;3755;59.316;18.092;2023-11-22T05:01:06;-3.20;99.90
7427;DHT22;3755;59.316;18.092;2023-11-22T05:03:36;-3.20;99.90
7427;DHT22;3755;59.316;18.092;2023-11-22T05:06:03;-3.20;99.90
7427;DHT22;3755;59.316;18.092;2023-11-22T05:08:30;-3.20;99.90
7427;DHT22;3755;59.316;18.092;2023-11-22T05:10:57;-3.30;99.90
7427;DHT22;3755;59.316;18.092;2023-11-22T05:13:24;-3.30;99.90
7427;DHT22;3755;59.316;18.092;2023-11-22T05:15:53;-3.30;99.90
7427;DHT22;3755;59.316;18.092;2023-11-22T05:18:20;-3.30;99.90
7427;DHT22;3755;59.316;18.092;2023-11-22T05:20:47;-3.30;99.90
7427;DHT22;3755;59.316;18.092;2023-11-22T05:23:15;-3.30;99.90
7427;DHT22;3755;59.316;18.092;2023-11-22T05:25:42;-3.30;99.90
7427;DHT22;3755;59.316;18.092;2023-11-22T05:28:09;-3.30;99.90
7427;DHT22;3755;59.316;18.092;2023-11-22T05:30:36;-3.30;99.90
7427;DHT22;3755;59.316;18.092;2023-11-22T05:33:05;-3.30;99.90
7427;DHT22;3755;59.316;18.092;2023-11-22T05:35:32;-3.30;99.90
7427;DHT22;3755;59.316;18.092;2023-11-22T05:38:00;-3.20;99.90
7427;DHT22;3755;59.316;18.092;2023-11-22T05:40:27;-3.20;99.90
7427;DHT22;3755;59.316;18.092;2023-11-22T05:42:54;-3.30;99.90
7427;DHT22;3755;59.316;18.092;2023-11-22T05:45:22;-3.30;99.90
7427;DHT22;3755;59.316;18.092;2023-11-22T05:47:49;-2.90;99.90
7427;DHT22;3755;59.316;18.092;2023-11-22T05:50:18;-3.40;99.90
7427;DHT22;3755;59.316;18.092;2023-11-22T05:52:45;-3.30;99.90
7427;DHT22;3755;59.316;18.092;2023-11-22T05:55:12;-3.30;99.90
7427;DHT22;3755;59.316;18.092;2023-11-22T05:57:40;-3.30;99.90
7427;DHT22;3755;59.316;18.092;2023-11-22T06:00:07;-2.90;99.90
7427;DHT22;3755;59.316;18.092;2023-11-22T06:02:35;-3.10;99.90
7427;DHT22;3755;59.316;18.092;2023-11-22T06:05:03;-3.10;99.90
7427;DHT22;3755;59.316;18.092;2023-11-22T06:07:33;-3.20;99.90
7427;DHT22;3755;59.316;18.092;2023-11-22T06:10:00;-3.20;99.90
7427;DHT22;3755;59.316;18.092;2023-11-22T06:12:28;-2.70;99.90
7427;DHT22;3755;59.316;18.092;2023-11-22T06:14:56;-3.30;99.90
7427;DHT22;3755;59.316;18.092;2023-11-22T06:17:23;-3.40;99.90
7427;DHT22;3755;59.316;18.092;2023-11-22T06:19:50;-3.70;99.90
7427;DHT22;3755;59.316;18.092;2023-11-22T06:22:17;-3.70;99.90
7427;DHT22;3755;59.316;18.092;2023-11-22T06:24:46;-3.50;99.90
7427;DHT22;3755;59.316;18.092;2023-11-22T06:27:14;-3.90;99.90
7427;DHT22;3755;59.316;18.092;2023-11-22T06:29:55;-3.90;99.90
7427;DHT22;3755;59.316;18.092;2023-11-22T06:32:23;-4.00;99.90
7427;DHT22;3755;59.316;18.092;2023-11-22T06:34:50;-3.50;99.90
7427;DHT22;3755;59.316;18.092;2023-11-22T06:37:18;-3.70;99.90
7427;DHT22;3755;59.316;18.092;2023-11-22T06:39:48;-4.20;99.90
7427;DHT22;3755;59.316;18.092;2023-11-22T06:42:16;-4.30;99.90
7427;DHT22;3755;59.316;18.092;2023-11-22T06:44:45;-4.40;99.90
7427;DHT22;3755;59.316;18.092;2023-11-22T06:47:14;-4.30;99.90
7427;DHT22;3755;59.316;18.092;2023-11-22T06:49:41;-4.30;99.90
7427;DHT22;3755;59.316;18.092;2023-11-22T06:52:10;-4.20;99.90
7427;DHT22;3755;59.316;18.092;2023-11-22T06:54:37;-4.20;99.90
7427;DHT22;3755;59.316;18.092;2023-11-22T06:57:08;-4.10;99.90
7427;DHT22;3755;59.316;18.092;2023-11-22T06:59:42;-4.00;99.90
7427;DHT22;3755;59.316;18.092;2023-11-22T07:02:10;-3.90;99.90
7427;DHT22;3755;59.316;18.092;2023-11-22T07:04:37;-3.80;99.90
7427;DHT22;3755;59.316;18.092;2023-11-22T07:07:05;-3.90;99.90
7427;DHT22;3755;59.316;18.092;2023-11-22T07:09:36;-3.90;99.90
7427;DHT22;3755;59.316;18.092;2023-11-22T07:12:06;-4.00;99.90
7427;DHT22;3755;59.316;18.092;2023-11-22T07:14:34;-3.90;99.90
7427;DHT22;3755;59.316;18.092;2023-11-22T07:17:02;-3.50;99.90
7427;DHT22;3755;59.316;18.092;2023-11-22T07:19:34;-3.90;99.90
7427;DHT22;3755;59.316;18.092;2023-11-22T07:22:04;-3.70;99.90
7427;DHT22;3755;59.316;18.092;2023-11-22T07:24:42;-3.70;99.90
7427;DHT22;3755;59.316;18.092;2023-11-22T07:27:12;-3.70;99.90
7427;DHT22;3755;59.316;18.092;2023-11-22T07:29:42;-3.60;99.90
7427;DHT22;3755;59.316;18.092;2023-11-22T07:32:13;-3.00;99.90
7427;DHT22;3755;59.316;18.092;2023-11-22T07:34:41;-3.60;99.90
7427;DHT22;3755;59.316;18.092;2023-11-22T07:37:09;-3.20;99.90
7427;DHT22;3755;59.316;18.092;2023-11-22T07:39:40;-3.40;99.90
7427;DHT22;3755;59.316;18.092;2023-11-22T07:42:08;-2.50;99.90
7427;DHT22;3755;59.316;18.092;2023-11-22T07:44:38;-3.30;99.90
7427;DHT22;3755;59.316;18.092;2023-11-22T07:47:06;-3.20;99.90
7427;DHT22;3755;59.316;18.092;2023-11-22T07:49:48;-3.20;99.90
7427;DHT22;3755;59.316;18.092;2023-11-22T07:52:19;-3.10;99.90
7427;DHT22;3755;59.316;18.092;2023-11-22T07:54:46;-2.10;99.90
7427;DHT22;3755;59.316;18.092;2023-11-22T07:57:14;-3.00;99.90
7427;DHT22;3755;59.316;18.092;2023-11-22T07:59:43;-2.10;99.90
7427;DHT22;3755;59.316;18.092;2023-11-22T08:02:24;-2.80;99.90
7427;DHT22;3755;59.316;18.092;2023-11-22T08:04:52;-2.70;99.90
7427;DHT22;3755;59.316;18.092;2023-11-22T08:07:19;-2.70;99.90
7427;DHT22;3755;59.316;18.092;2023-11-22T08:09:48;-2.70;99.90
7427;DHT22;3755;59.316;18.092;2023-11-22T08:12:16;-1.60;99.90
7427;DHT22;3755;59.316;18.092;2023-11-22T08:14:48;-2.10;99.90
7427;DHT22;3755;59.316;18.092;2023-11-22T08:17:30;-1.80;99.90
7427;DHT22;3755;59.316;18.092;2023-11-22T08:20:00;-2.40;99.90
7427;DHT22;3755;59.316;18.092;2023-11-22T08:22:31;-2.40;99.90
7427;DHT22;3755;59.316;18.092;2023-11-22T08:25:01;-2.40;99.90
7427;DHT22;3755;59.316;18.092;2023-11-22T08:27:29;-2.40;99.90
7427;DHT22;3755;59.316;18.092;2023-11-22T08:29:58;-2.40;99.90
7427;DHT22;3755;59.316;18.092;2023-11-22T08:32:41;-2.40;99.90
7427;DHT22;3755;59.316;18.092;2023-11-22T08:35:10;-2.30;99.90
7427;DHT22;3755;59.316;18.092;2023-11-22T08:37:39;-2.30;99.90
7427;DHT22;3755;59.316;18.092;2023-11-22T08:40:08;-2.20;99.90
7427;DHT22;3755;59.316;18.092;2023-11-22T08:42:37;-2.20;99.90
7427;DHT22;3755;59.316;18.092;2023-11-22T08:45:10;-2.10;99.90
7427;DHT22;3755;59.316;18.092;2023-11-22T08:47:39;-2.10;99.90
7427;DHT22;3755;59.316;18.092;2023-11-22T08:50:07;-1.60;99.90
7427;DHT22;3755;59.316;18.092;2023-11-22T08:52:36;-2.00;99.90
7427;DHT22;3755;59.316;18.092;2023-11-22T08:55:05;-1.80;99.90
7427;DHT22;3755;59.316;18.092;2023-11-22T08:57:34;-1.90;99.90
7427;DHT22;3755;59.316;18.092;2023-11-22T09:00:18;-1.60;99.90
7427;DHT22;3755;59.316;18.092;2023-11-22T09:02:50;-1.70;99.90
7427;DHT22;3755;59.316;18.092;2023-11-22T09:05:32;-1.70;99.90
7427;DHT22;3755;59.316;18.092;2023-11-22T09:08:13;-1.90;99.90
7427;DHT22;3755;59.316;18.092;2023-11-22T09:10:48;-1.60;99.90
7427;DHT22;3755;59.316;18.092;2023-11-22T09:13:24;-1.50;99.90
7427;DHT22;3755;59.316;18.092;2023-11-22T09:15:55;-1.40;99.90
7427;DHT22;3755;59.316;18.092;2023-11-22T09:18:25;-1.40;99.90
7427;DHT22;3755;59.316;18.092;2023-11-22T09:20:55;-1.40;99.90
7427;DHT22;3755;59.316;18.092;2023-11-22T09:23:22;-1.20;99.90
7427;DHT22;3755;59.316;18.092;2023-11-22T09:25:52;-1.20;99.90
7427;DHT22;3755;59.316;18.092;2023-11-22T09:28:19;-0.70;99.90
7427;DHT22;3755;59.316;18.092;2023-11-22T09:30:47;-1.10;99.90
7427;DHT22;3755;59.316;18.092;2023-11-22T09:33:24;-1.10;99.90
7427;DHT22;3755;59.316;18.092;2023-11-22T09:36:06;-0.70;99.90
7427;DHT22;3755;59.316;18.092;2023-11-22T09:38:35;-0.90;99.90
7427;DHT22;3755;59.316;18.092;2023-11-22T09:41:03;-1.00;99.90
7427;DHT22;3755;59.316;18.092;2023-11-22T09:43:31;-0.90;99.90
7427;DHT22;3755;59.316;18.092;2023-11-22T09:46:00;-0.50;99.90
7427;DHT22;3755;59.316;18.092;2023-11-22T09:48:34;-1.00;99.90
7427;DHT22;3755;59.316;18.092;2023-11-22T09:51:21;-0.90;99.90
7427;DHT22;3755;59.316;18.092;2023-11-22T09:53:55;-0.90;99.90
7427;DHT22;3755;59.316;18.092;2023-11-22T09:56:24;-0.80;99.90
7427;DHT22;3755;59.316;18.092;2023-11-22T09:59:07;-0.80;99.90
7427;DHT22;3755;59.316;18.092;2023-11-22T10:01:37;-0.90;99.90
7427;DHT22;3755;59.316;18.092;2023-11-22T10:04:10;-0.90;99.90
7427;DHT22;3755;59.316;18.092;2023-11-22T10:06:51;-0.90;99.90
7427;DHT22;3755;59.316;18.092;2023-11-22T10:09:21;-0.80;99.90
7427;DHT22;3755;59.316;18.092;2023-11-22T10:11:51;-0.80;99.90
7427;DHT22;3755;59.316;18.092;2023-11-22T10:14:23;-0.70;99.90
7427;DHT22;3755;59.316;18.092;2023-11-22T10:16:58;-0.70;99.90
7427;DHT22;3755;59.316;18.092;2023-11-22T10:19:28;-0.50;99.90
7427;DHT22;3755;59.316;18.092;2023-11-22T10:22:03;-0.60;99.90
7427;DHT22;3755;59.316;18.092;2023-11-22T10:24:48;-0.60;99.90
7427;DHT22;3755;59.316;18.092;2023-11-22T10:27:19;-0.60;99.90
7427;DHT22;3755;59.316;18.092;2023-11-22T10:29:47;-0.80;99.90
7427;DHT22;3755;59.316;18.092;2023-11-22T10:32:16;-0.30;99.90
7427;DHT22;3755;59.316;18.092;2023-11-22T10:34:44;-0.80;99.90
7427;DHT22;3755;59.316;18.092;2023-11-22T10:37:11;-0.70;99.90
7427;DHT22;3755;59.316;18.092;2023-11-22T10:39:39;-0.70;99.90
7427;DHT22;3755;59.316;18.092;2023-11-22T10:42:08;-0.60;99.90
7427;DHT22;3755;59.316;18.092;2023-11-22T10:44:46;-0.50;99.90
7427;DHT22;3755;59.316;18.092;2023-11-22T10:47:15;-0.60;99.90
7427;DHT22;3755;59.316;18.092;2023-11-22T10:49:49;-0.50;99.90
7427;DHT22;3755;59.316;18.092;2023-11-22T10:52:19;-0.60;99.90
7427;DHT22;3755;59.316;18.092;2023-11-22T10:54:50;-0.60;99.90
7427;DHT22;3755;59.316;18.092;2023-11-22T10:57:23;-0.50;99.90
7427;DHT22;3755;59.316;18.092;2023-11-22T10:59:54;-0.60;99.90
7427;DHT22;3755;59.316;18.092;2023-11-22T11:02:23;-0.60;99.90
7427;DHT22;3755;59.316;18.092;2023-11-22T11:04:59;-0.60;99.90
7427;DHT22;3755;59.316;18.092;2023-11-22T11:07:39;-0.50;99.90
7427;DHT22;3755;59.316;18.092;2023-11-22T11:10:24;-0.50;99.90
7427;DHT22;3755;59.316;18.092;2023-11-22T11:12:52;-0.40;99.90
7427;DHT22;3755;59.316;18.092;2023-11-22T11:15:22;-0.70;99.90
7427;DHT22;3755;59.316;18.092;2023-11-22T11:17:50;-0.40;99.90
7427;DHT22;3755;59.316;18.092;2023-11-22T11:20:19;-0.40;99.90
7427;DHT22;3755;59.316;18.092;2023-11-22T11:22:50;-0.40;99.90
7427;DHT22;3755;59.316;18.092;2023-11-22T11:25:18;-0.40;99.90
7427;DHT22;3755;59.316;18.092;2023-11-22T11:27:55;-0.30;99.90
7427;DHT22;3755;59.316;18.092;2023-11-22T11:30:45;-0.30;99.90
7427;DHT22;3755;59.316;18.092;2023-11-22T11:33:15;-0.30;99.90
7427;DHT22;3755;59.316;18.092;2023-11-22T11:35:48;-0.20;99.90
7427;DHT22;3755;59.316;18.092;2023-11-22T11:38:19;-0.20;99.90
7427;DHT22;3755;59.316;18.092;2023-11-22T11:40:48;-0.10;99.90
7427;DHT22;3755;59.316;18.092;2023-11-22T11:43:20;0.00;99.90
7427;DHT22;3755;59.316;18.092;2023-11-22T11:45:47;0.00;99.90
7427;DHT22;3755;59.316;18.092;2023-11-22T11:48:16;0.00;99.90
7427;DHT22;3755;59.316;18.092;2023-11-22T11:50:46;0.10;99.90
7427;DHT22;3755;59.316;18.092;2023-11-22T11:53:13;0.10;99.90
7427;DHT22;3755;59.316;18.092;2023-11-22T11:55:41;0.00;99.90
7427;DHT22;3755;59.316;18.092;2023-11-22T11:58:11;0.00;99.90
7427;DHT22;3755;59.316;18.092;2023-11-22T12:00:38;0.20;99.90
7427;DHT22;3755;59.316;18.092;2023-11-22T12:03:07;0.20;99.90
7427;DHT22;3755;59.316;18.092;2023-11-22T12:05:37;0.20;99.90
7427;DHT22;3755;59.316;18.092;2023-11-22T12:08:06;0.80;99.90
7427;DHT22;3755;59.316;18.092;2023-11-22T12:10:47;0.30;99.90
7427;DHT22;3755;59.316;18.092;2023-11-22T12:13:21;0.40;99.90
7427;DHT22;3755;59.316;18.092;2023-11-22T12:15:49;0.40;99.90
7427;DHT22;3755;59.316;18.092;2023-11-22T12:18:19;0.50;99.90
7427;DHT22;3755;59.316;18.092;2023-11-22T12:20:54;0.50;99.90
7427;DHT22;3755;59.316;18.092;2023-11-22T12:23:26;0.50;99.90
7427;DHT22;3755;59.316;18.092;2023-11-22T12:25:57;0.60;99.90
7427;DHT22;3755;59.316;18.092;2023-11-22T12:28:27;0.60;99.90
7427;DHT22;3755;59.316;18.092;2023-11-22T12:31:10;0.60;99.90
7427;DHT22;3755;59.316;18.092;2023-11-22T12:33:39;0.60;99.90
7427;DHT22;3755;59.316;18.092;2023-11-22T12:36:09;0.60;99.90
7427;DHT22;3755;59.316;18.092;2023-11-22T12:38:43;0.70;99.90
7427;DHT22;3755;59.316;18.092;2023-11-22T12:41:26;0.70;99.90
7427;DHT22;3755;59.316;18.092;2023-11-22T12:44:04;0.80;99.90
7427;DHT22;3755;59.316;18.092;2023-11-22T12:46:45;0.90;99.90
7427;DHT22;3755;59.316;18.092;2023-11-22T12:49:14;0.90;99.90
7427;DHT22;3755;59.316;18.092;2023-11-22T12:51:46;1.00;99.90
7427;DHT22;3755;59.316;18.092;2023-11-22T12:54:16;1.00;99.90
7427;DHT22;3755;59.316;18.092;2023-11-22T12:56:45;1.10;99.90
7427;DHT22;3755;59.316;18.092;2023-11-22T12:59:15;1.10;99.90
7427;DHT22;3755;59.316;18.092;2023-11-22T13:01:43;1.10;99.90
7427;DHT22;3755;59.316;18.092;2023-11-22T13:04:12;1.20;99.90
7427;DHT22;3755;59.316;18.092;2023-11-22T13:06:40;1.20;99.90
7427;DHT22;3755;59.316;18.092;2023-11-22T13:09:07;1.30;99.90
7427;DHT22;3755;59.316;18.092;2023-11-22T13:11:41;1.20;99.90
7427;DHT22;3755;59.316;18.092;2023-11-22T13:14:10;1.20;99.90
7427;DHT22;3755;59.316;18.092;2023-11-22T13:16:40;1.20;99.90
7427;DHT22;3755;59.316;18.092;2023-11-22T13:19:08;1.10;99.90
7427;DHT22;3755;59.316;18.092;2023-11-22T13:21:38;1.10;99.90
7427;DHT22;3755;59.316;18.092;2023-11-22T13:24:07;1.00;99.90
7427;DHT22;3755;59.316;18.092;2023-11-22T13:26:34;0.90;99.90
7427;DHT22;3755;59.316;18.092;2023-11-22T13:29:03;1.00;99.90
7427;DHT22;3755;59.316;18.092;2023-11-22T13:31:33;0.90;99.90
7427;DHT22;3755;59.316;18.092;2023-11-22T13:34:00;0.90;99.90
7427;DHT22;3755;59.316;18.092;2023-11-22T13:36:27;0.90;99.90
7427;DHT22;3755;59.316;18.092;2023-11-22T13:38:54;0.90;99.90
7427;DHT22;3755;59.316;18.092;2023-11-22T13:41:22;0.90;99.90
7427;DHT22;3755;59.316;18.092;2023-11-22T13:43:50;0.90;99.90
7427;DHT22;3755;59.316;18.092;2023-11-22T13:46:18;1.00;99.90
7427;DHT22;3755;59.316;18.092;2023-11-22T13:48:53;0.90;99.90
7427;DHT22;3755;59.316;18.092;2023-11-22T13:51:22;1.00;99.90
7427;DHT22;3755;59.316;18.092;2023-11-22T13:54:03;0.90;99.90
7427;DHT22;3755;59.316;18.092;2023-11-22T13:56:31;0.90;99.90
7427;DHT22;3755;59.316;18.092;2023-11-22T13:58:58;0.90;99.90
7427;DHT22;3755;59.316;18.092;2023-11-22T14:01:27;0.90;99.90
7427;DHT22;3755;59.316;18.092;2023-11-22T14:03:54;0.90;99.90
7427;DHT22;3755;59.316;18.092;2023-11-22T14:06:22;0.90;99.90
7427;DHT22;3755;59.316;18.092;2023-11-22T14:08:49;0.80;99.90
7427;DHT22;3755;59.316;18.092;2023-11-22T14:11:16;0.80;99.90
7427;DHT22;3755;59.316;18.092;2023-11-22T14:13:44;0.70;99.90
7427;DHT22;3755;59.316;18.092;2023-11-22T14:16:14;0.70;99.90
7427;DHT22;3755;59.316;18.092;2023-11-22T14:18:42;0.60;99.90
7427;DHT22;3755;59.316;18.092;2023-11-22T14:21:10;0.60;99.90
7427;DHT22;3755;59.316;18.092;2023-11-22T14:23:37;0.60;99.90
7427;DHT22;3755;59.316;18.092;2023-11-22T14:26:04;0.50;99.90
7427;DHT22;3755;59.316;18.092;2023-11-22T14:28:32;0.50;99.90
7427;DHT22;3755;59.316;18.092;2023-11-22T14:30:59;0.50;99.90
7427;DHT22;3755;59.316;18.092;2023-11-22T14:33:27;0.50;99.90
7427;DHT22;3755;59.316;18.092;2023-11-22T14:35:59;0.50;99.90
7427;DHT22;3755;59.316;18.092;2023-11-22T14:38:26;0.50;99.90
7427;DHT22;3755;59.316;18.092;2023-11-22T14:40:53;0.50;99.90
7427;DHT22;3755;59.316;18.092;2023-11-22T14:43:22;0.50;99.90
7427;DHT22;3755;59.316;18.092;2023-11-22T14:45:49;0.50;99.90
7427;DHT22;3755;59.316;18.092;2023-11-22T14:48:16;0.60;99.90
7427;DHT22;3755;59.316;18.092;2023-11-22T14:50:43;0.50;99.90
7427;DHT22;3755;59.316;18.092;2023-11-22T14:53:11;0.60;99.90
7427;DHT22;3755;59.316;18.092;2023-11-22T14:55:38;0.60;99.90
7427;DHT22;3755;59.316;18.092;2023-11-22T14:58:07;0.60;99.90
7427;DHT22;3755;59.316;18.092;2023-11-22T15:00:35;0.60;99.90
7427;DHT22;3755;59.316;18.092;2023-11-22T15:03:03;0.70;99.90
7427;DHT22;3755;59.316;18.092;2023-11-22T15:05:30;0.70;99.90
7427;DHT22;3755;59.316;18.092;2023-11-22T15:07:58;0.70;99.90
7427;DHT22;3755;59.316;18.092;2023-11-22T15:10:29;0.70;99.90
7427;DHT22;3755;59.316;18.092;2023-11-22T15:12:56;0.80;99.90
7427;DHT22;3755;59.316;18.092;2023-11-22T15:15:24;0.80;99.90
7427;DHT22;3755;59.316;18.092;2023-11-22T15:17:51;0.70;99.90
7427;DHT22;3755;59.316;18.092;2023-11-22T15:20:18;0.70;99.90
7427;DHT22;3755;59.316;18.092;2023-11-22T15:22:45;1.00;99.90
7427;DHT22;3755;59.316;18.092;2023-11-22T15:25:12;1.00;99.90
7427;DHT22;3755;59.316;18.092;2023-11-22T15:27:42;1.00;99.90
7427;DHT22;3755;59.316;18.092;2023-11-22T15:30:10;1.00;99.90
7427;DHT22;3755;59.316;18.092;2023-11-22T15:32:38;1.10;99.90
7427;DHT22;3755;59.316;18.092;2023-11-22T15:35:05;1.10;99.90
7427;DHT22;3755;59.316;18.092;2023-11-22T15:37:34;1.10;99.90
7427;DHT22;3755;59.316;18.092;2023-11-22T15:40:01;1.20;99.90
7427;DHT22;3755;59.316;18.092;2023-11-22T15:42:29;1.20;99.90
7427;DHT22;3755;59.316;18.092;2023-11-22T15:44:58;1.20;99.90
7427;DHT22;3755;59.316;18.092;2023-11-22T15:47:25;1.20;99.90
7427;DHT22;3755;59.316;18.092;2023-11-22T15:49:52;1.20;99.90
7427;DHT22;3755;59.316;18.092;2023-11-22T15:52:20;1.20;99.90
7427;DHT22;3755;59.316;18.092;2023-11-22T15:54:48;1.20;99.90
7427;DHT22;3755;59.316;18.092;2023-11-22T15:57:15;1.20;99.90
7427;DHT22;3755;59.316;18.092;2023-11-22T15:59:44;1.20;99.90
7427;DHT22;3755;59.316;18.092;2023-11-22T16:02:13;1.20;99.90